»·PEaware :: N35CF KPMD-KRAL

N35CF :: KPMD-KRAL

FLIGHT INFORMATION

Flight Status: Arrived
Operator: Privately registered:
United States
More flights under this callsign
Pilot: Todd C. (18613)
Aircraft: BEECH AIRCRAFT A90-E90 KING AIR
(BE9L)
More flights by this aircraft type
Origin: KPMD Palmdale AF Plant 42
United States
Destination: KRAL Riverside Mun
United States
More flights between these airports :: More routes between these airports
Route: +PMD ZIGGY7
File this flight plan on PilotEdge
Remarks: ODP
Altitude:
(Current/Filed)
13,000ft
Speed:
(Current/Filed)
235kts
Departed: 13-Mar-20 04:17 PM
Arrived: 13-Mar-20 05:00 PM
Distance/Time
Traveled:
52nm/0:42
Distance/Time
To Go:
Arrived

Flight Plot

Page will automatically refresh every two minutes.

Flight plan parsing failed; only flown route is shown


Map Options




Map Legend


Flown Route
Filed Route
Departure Airport
Arrival Airport
Navaid (VOR, NDB)
Fix

Horizontal Profiles

Position Reports

Time Latitude Longitude Heading Altitude Ground
Speed
13-Mar-20 16:06 34.612035 -118.089787 90 2552ft 0kts
13-Mar-20 16:07 34.612035 -118.089787 90 2552ft 0kts
13-Mar-20 16:08 34.612035 -118.089787 90 2552ft 0kts
13-Mar-20 16:09 34.612035 -118.089787 90 2552ft 0kts
13-Mar-20 16:10 34.612035 -118.089787 90 2552ft 0kts
13-Mar-20 16:11 34.612035 -118.089787 90 2552ft 0kts
13-Mar-20 16:12 34.612035 -118.089787 90 2552ft 0kts
13-Mar-20 16:13 34.612035 -118.089787 90 2552ft 0kts
13-Mar-20 16:14 34.612242 -118.089568 7 2551ft 0kts
13-Mar-20 16:15 34.617128 -118.089508 359 2538ft 22kts
13-Mar-20 16:16 34.624965 -118.083457 50 2516ft 53kts
13-Mar-20 16:17 34.634739 -118.068435 51 2496ft 56kts
13-Mar-20 16:18 34.637894 -118.061142 140 2490ft 0kts
13-Mar-20 16:19 34.637894 -118.061142 140 2490ft 0kts
13-Mar-20 16:20 34.637723 -118.060978 143 2490ft 7kts
13-Mar-20 16:21 34.634458 -118.064664 229 2504ft 84kts
13-Mar-20 16:22 34.613260 -118.096393 245 3953ft 136kts
13-Mar-20 16:23 34.639042 -118.129684 326 5893ft 148kts
13-Mar-20 16:24 34.682921 -118.140397 329 7395ft 160kts
13-Mar-20 16:26 34.715702 -118.171463 305 8910ft 147kts
13-Mar-20 16:27 34.742854 -118.208947 307 10176ft 149kts
13-Mar-20 16:28 34.749893 -118.250350 219 11413ft 158kts
13-Mar-20 16:29 34.713850 -118.216592 124 12350ft 199kts
13-Mar-20 16:30 34.681212 -118.159382 126 12941ft 219kts
13-Mar-20 16:31 34.647586 -118.092538 125 13058ft 238kts
13-Mar-20 16:32 34.613066 -118.022061 114 13034ft 247kts
13-Mar-20 16:33 34.578407 -117.949308 121 12999ft 250kts
13-Mar-20 16:34 34.542332 -117.876959 122 12983ft 249kts
13-Mar-20 16:35 34.510480 -117.802473 114 12989ft 248kts
13-Mar-20 16:36 34.479728 -117.728104 118 13025ft 243kts
13-Mar-20 16:37 34.443619 -117.658273 124 13039ft 243kts
13-Mar-20 16:38 34.412867 -117.583954 118 13085ft 244kts
13-Mar-20 16:39 34.381679 -117.510753 115 13110ft 244kts
13-Mar-20 16:40 34.349224 -117.436234 120 13151ft 244kts
13-Mar-20 16:41 34.314809 -117.359969 119 12176ft 249kts
13-Mar-20 16:42 34.257876 -117.321279 168 10868ft 219kts
13-Mar-20 16:43 34.197344 -117.298909 167 9202ft 209kts
13-Mar-20 16:44 34.139957 -117.279527 166 8214ft 200kts
13-Mar-20 16:44 34.094715 -117.257606 164 8036ft 193kts
13-Mar-20 16:46 34.035841 -117.229180 158 8041ft 190kts
13-Mar-20 16:47 33.984665 -117.206299 164 7265ft 195kts
13-Mar-20 16:47 33.940076 -117.187342 164 6530ft 212kts
13-Mar-20 16:48 33.885899 -117.164922 149 5975ft 199kts
13-Mar-20 16:50 33.828783 -117.122714 152 5336ft 210kts
13-Mar-20 16:50 33.787064 -117.111404 230 4404ft 183kts
13-Mar-20 16:51 33.808732 -117.150116 340 3965ft 164kts
13-Mar-20 16:52 33.852495 -117.164104 340 4003ft 171kts
13-Mar-20 16:53 33.889226 -117.199172 312 4008ft 169kts
13-Mar-20 16:54 33.911520 -117.248421 283 3630ft 158kts
13-Mar-20 16:55 33.919661 -117.298034 288 3591ft 155kts
13-Mar-20 16:56 33.933767 -117.348310 289 3326ft 134kts
13-Mar-20 16:57 33.941967 -117.391574 288 2612ft 112kts
13-Mar-20 16:58 33.949481 -117.427934 293 1415ft 119kts
13-Mar-20 16:59 33.952172 -117.446310 192 771ft 0kts
13-Mar-20 17:00 33.951798 -117.446419 194 769ft 11kts
13-Mar-20 17:01 33.951410 -117.446739 282 767ft 0kts

Navigation Log

Ident Type
Flight plan parsing failed, navigation log unavailable